createdAt,value
2022-10-17T00:01:26.153Z,70.88
2022-10-17T00:06:47.893Z,71.08
2022-10-17T00:12:09.950Z,71.32
2022-10-17T00:17:31.757Z,71.22
2022-10-17T00:22:53.613Z,71.32
2022-10-17T00:28:15.912Z,71.40
2022-10-17T00:33:37.349Z,71.45
2022-10-17T00:38:59.415Z,71.23
2022-10-17T00:44:29.728Z,71.00
2022-10-17T00:49:51.289Z,71.08
2022-10-17T00:55:31.058Z,71.19
2022-10-17T01:00:52.874Z,71.59
2022-10-17T01:06:14.441Z,71.60
2022-10-17T01:12:01.454Z,71.50
2022-10-17T01:17:51.886Z,71.72
2022-10-17T01:23:48.505Z,71.62
2022-10-17T01:29:47.869Z,71.62
2022-10-17T01:35:23.303Z,71.64
2022-10-17T01:40:48.479Z,71.97
2022-10-17T01:46:22.464Z,72.09
2022-10-17T01:51:48.619Z,72.22
2022-10-17T01:57:30.829Z,72.30
2022-10-17T02:02:57.260Z,72.43
2022-10-17T02:08:27.499Z,72.39
2022-10-17T02:14:01.679Z,72.47
2022-10-17T02:19:33.869Z,72.49
2022-10-17T02:25:17.483Z,72.40
2022-10-17T02:30:55.371Z,72.41
2022-10-17T02:36:21.770Z,72.30
2022-10-17T02:41:44.268Z,72.35
2022-10-17T02:47:17.946Z,72.13
2022-10-17T02:52:45.927Z,72.02
2022-10-17T02:58:10.867Z,71.97
2022-10-17T03:03:33.482Z,72.14
2022-10-17T03:08:56.730Z,72.65
2022-10-17T03:14:18.661Z,73.55
2022-10-17T03:19:41.008Z,73.57
2022-10-17T03:25:04.224Z,73.69
2022-10-17T03:30:26.303Z,73.81
2022-10-17T03:41:15.171Z,73.68
2022-10-17T03:46:37.461Z,73.88
2022-10-17T03:51:59.189Z,73.95
2022-10-17T03:57:21.887Z,73.81
2022-10-17T04:02:45.155Z,73.23
2022-10-17T04:08:11.437Z,73.45
2022-10-17T04:13:59.886Z,73.55
2022-10-17T04:19:21.952Z,73.38
2022-10-17T04:24:44.950Z,73.58
2022-10-17T04:30:18.919Z,74.04
2022-10-17T04:35:41.689Z,74.53
2022-10-17T04:41:08.073Z,74.79
2022-10-17T04:46:29.745Z,75.33
2022-10-17T04:51:51.157Z,75.61
2022-10-17T04:57:19.986Z,75.71
2022-10-17T05:02:49.201Z,75.51
2022-10-17T05:08:11.895Z,75.12
2022-10-17T05:13:33.760Z,74.92
2022-10-17T05:18:57.596Z,74.98
2022-10-17T05:24:21.891Z,75.21
2022-10-17T05:29:43.966Z,74.83
2022-10-17T05:35:12.237Z,74.73
2022-10-17T05:40:34.753Z,74.24
2022-10-17T05:45:57.886Z,74.90
2022-10-17T05:51:19.308Z,75.03
2022-10-17T05:56:41.501Z,75.10
2022-10-17T06:02:03.338Z,74.95
2022-10-17T06:07:25.717Z,74.17
2022-10-17T06:12:47.689Z,73.67
2022-10-17T06:18:11.076Z,73.63
2022-10-17T06:23:32.993Z,74.06
2022-10-17T06:29:02.045Z,74.22
2022-10-17T06:34:28.691Z,74.28
2022-10-17T06:39:50.275Z,74.21
2022-10-17T06:45:15.660Z,73.97
2022-10-17T06:50:48.638Z,73.74
2022-10-17T06:56:14.272Z,73.32
2022-10-17T07:01:51.048Z,73.09
2022-10-17T07:07:13.387Z,72.68
2022-10-17T07:12:35.516Z,72.13
2022-10-17T07:17:57.613Z,71.65
2022-10-17T07:23:21.352Z,71.10
2022-10-17T07:28:45.305Z,70.54
2022-10-17T07:34:21.918Z,69.98
2022-10-17T07:39:44.126Z,69.47
2022-10-17T07:45:06.506Z,69.10
2022-10-17T07:50:29.359Z,68.49
2022-10-17T07:55:51.570Z,67.95
2022-10-17T08:01:15.652Z,67.48
2022-10-17T08:06:37.612Z,67.08
2022-10-17T08:11:59.246Z,66.72
2022-10-17T08:17:22.781Z,66.09
2022-10-17T08:22:51.938Z,65.84
2022-10-17T08:28:13.435Z,65.44
2022-10-17T08:33:35.013Z,64.78
2022-10-17T08:38:56.593Z,64.66
2022-10-17T08:44:25.735Z,64.52
2022-10-17T08:49:51.518Z,64.17
2022-10-17T08:55:22.909Z,63.71
2022-10-17T09:01:12.790Z,62.62
2022-10-17T09:06:38.034Z,61.95
2022-10-17T09:12:13.642Z,62.25
2022-10-17T09:17:52.040Z,61.83
2022-10-17T09:23:17.491Z,60.88
2022-10-17T09:28:41.633Z,60.60
2022-10-17T09:34:03.490Z,60.31
2022-10-17T09:39:32.275Z,59.82
2022-10-17T09:45:12.887Z,59.61
2022-10-17T09:50:35.072Z,58.78
2022-10-17T09:55:59.760Z,57.95
2022-10-17T10:01:24.626Z,57.36
2022-10-17T10:07:12.496Z,57.37
2022-10-17T10:12:39.149Z,56.76
2022-10-17T10:18:01.298Z,57.03
2022-10-17T10:23:24.361Z,56.55
2022-10-17T10:29:15.405Z,55.70
2022-10-17T10:34:42.555Z,55.32
2022-10-17T10:40:18.695Z,54.52
2022-10-17T10:45:48.085Z,54.05
2022-10-17T10:51:17.223Z,54.32
2022-10-17T10:56:43.870Z,53.82
2022-10-17T11:02:24.205Z,53.80
2022-10-17T11:08:11.244Z,53.29
2022-10-17T11:13:39.782Z,53.42
2022-10-17T11:19:29.988Z,53.08
2022-10-17T11:25:05.676Z,52.81
2022-10-17T11:30:35.091Z,52.92
2022-10-17T11:36:02.171Z,52.37
2022-10-17T11:41:34.936Z,51.91
2022-10-17T11:47:02.009Z,51.92
2022-10-17T11:52:57.157Z,51.52
2022-10-17T11:58:33.244Z,51.08
2022-10-17T12:04:07.520Z,51.02
2022-10-17T12:09:52.410Z,50.70
2022-10-17T12:15:14.215Z,50.58
2022-10-17T12:20:36.696Z,50.40
2022-10-17T12:26:04.801Z,50.30
2022-10-17T12:31:33.413Z,50.20
2022-10-17T12:36:55.380Z,50.30
2022-10-17T12:42:31.177Z,49.85
2022-10-17T12:47:53.286Z,49.97
2022-10-17T12:53:18.531Z,50.26
2022-10-17T12:58:50.195Z,50.22
2022-10-17T13:04:12.550Z,50.36
2022-10-17T13:09:39.047Z,50.36
2022-10-17T13:15:04.108Z,50.35
2022-10-17T13:20:31.318Z,50.45
2022-10-17T13:26:22.651Z,50.29
2022-10-17T13:31:44.866Z,49.83
2022-10-17T13:37:11.165Z,50.07
2022-10-17T13:42:39.748Z,50.31
2022-10-17T13:48:04.291Z,50.22
2022-10-17T13:53:39.976Z,50.32
2022-10-17T13:59:08.301Z,49.88
2022-10-17T14:04:40.081Z,50.01
2022-10-17T14:10:20.645Z,50.47
2022-10-17T14:15:48.392Z,50.86
2022-10-17T14:26:53.709Z,51.19
2022-10-17T14:32:16.125Z,51.56
2022-10-17T14:37:45.820Z,51.61
2022-10-17T14:43:19.757Z,51.45
2022-10-17T14:48:42.092Z,51.54
2022-10-17T14:54:24.386Z,52.02
2022-10-17T14:59:55.194Z,52.54
2022-10-17T15:05:18.215Z,52.98
2022-10-17T15:10:44.629Z,53.20
2022-10-17T15:16:15.487Z,53.54
2022-10-17T15:21:42.082Z,54.06
2022-10-17T15:27:22.822Z,54.49
2022-10-17T15:32:44.545Z,54.94
2022-10-17T15:38:07.360Z,55.56
2022-10-17T15:43:29.300Z,56.02
2022-10-17T15:48:50.904Z,56.42
2022-10-17T15:59:39.152Z,56.83
2022-10-17T16:05:03.841Z,57.03
2022-10-17T16:10:26.162Z,57.30
2022-10-17T16:15:47.804Z,57.52
2022-10-17T16:21:12.988Z,57.59
2022-10-17T16:26:34.444Z,57.82
2022-10-17T16:31:56.145Z,58.05
2022-10-17T16:37:17.873Z,58.28
2022-10-17T16:42:41.894Z,58.69
2022-10-17T16:48:03.935Z,58.98
2022-10-17T16:53:25.428Z,59.27
2022-10-17T16:58:47.900Z,59.28
2022-10-17T17:04:09.678Z,59.29
2022-10-17T17:09:31.353Z,59.37
2022-10-17T17:14:53.085Z,59.64
2022-10-17T17:20:14.684Z,59.76
2022-10-17T17:25:39.251Z,59.90
2022-10-17T17:31:01.784Z,60.26
2022-10-17T17:36:31.881Z,60.37
2022-10-17T17:41:53.268Z,60.57
2022-10-17T17:47:15.057Z,60.60
2022-10-17T17:52:40.308Z,60.52
2022-10-17T17:58:03.111Z,60.54
2022-10-17T18:03:25.370Z,60.66
2022-10-17T18:08:49.138Z,60.73
2022-10-17T18:14:12.759Z,60.57
2022-10-17T18:19:34.703Z,60.44
2022-10-17T18:24:56.531Z,60.46
2022-10-17T18:30:21.164Z,60.37
2022-10-17T18:35:45.909Z,60.34
2022-10-17T18:41:11.194Z,60.52
2022-10-17T18:46:41.769Z,60.69
2022-10-17T18:52:03.550Z,60.82
2022-10-17T18:57:26.268Z,61.02
2022-10-17T19:02:48.301Z,61.29
2022-10-17T19:08:10.660Z,61.56
2022-10-17T19:13:32.993Z,61.84
2022-10-17T19:18:59.827Z,62.02
2022-10-17T19:24:25.979Z,62.26
2022-10-17T19:29:48.083Z,62.40
2022-10-17T19:35:11.390Z,62.51
2022-10-17T19:40:32.917Z,62.59
2022-10-17T19:46:00.217Z,62.88
2022-10-17T19:51:26.757Z,63.05
2022-10-17T19:56:48.670Z,63.20
2022-10-17T20:02:12.971Z,63.40
2022-10-17T20:07:34.735Z,63.52
2022-10-17T20:12:56.155Z,63.50
2022-10-17T20:18:17.790Z,63.67
2022-10-17T20:23:40.493Z,63.93
2022-10-17T20:29:02.897Z,64.18
2022-10-17T20:34:24.883Z,64.50
2022-10-17T20:39:46.514Z,64.36
2022-10-17T20:45:08.522Z,64.32
2022-10-17T20:50:33.883Z,64.42
2022-10-17T20:56:06.234Z,64.53
2022-10-17T21:01:29.648Z,64.65
2022-10-17T21:06:54.526Z,64.47
2022-10-17T21:12:25.938Z,64.18
2022-10-17T21:17:58.151Z,64.10
2022-10-17T21:23:20.283Z,64.02
2022-10-17T21:28:42.940Z,63.99
2022-10-17T21:34:10.335Z,63.99
2022-10-17T21:39:31.562Z,63.90
2022-10-17T21:44:53.316Z,63.80
2022-10-17T21:50:14.950Z,63.92
2022-10-17T21:55:37.881Z,64.06
2022-10-17T22:01:14.212Z,64.17
2022-10-17T22:06:40.118Z,64.49
2022-10-17T22:12:02.570Z,64.74
2022-10-17T22:17:24.060Z,65.03
2022-10-17T22:22:45.828Z,65.16
2022-10-17T22:28:07.887Z,65.11
2022-10-17T22:33:32.510Z,65.19
2022-10-17T22:38:54.209Z,65.27
2022-10-17T22:44:16.317Z,65.58
2022-10-17T22:49:37.946Z,65.65
2022-10-17T22:54:59.737Z,65.92
2022-10-17T23:00:21.364Z,66.00
2022-10-17T23:05:43.592Z,66.01
2022-10-17T23:11:06.110Z,65.91
2022-10-17T23:16:27.391Z,66.08
2022-10-17T23:21:49.019Z,66.18
2022-10-17T23:27:10.747Z,66.25
2022-10-17T23:32:32.829Z,66.44
2022-10-17T23:37:54.812Z,66.63
2022-10-17T23:43:16.939Z,66.95
2022-10-17T23:48:39.569Z,66.95
2022-10-17T23:54:01.297Z,66.99
2022-10-17T23:59:23.079Z,67.12
